METAR Data
IDs: Format: Raw Decoded Include TAF

Data at: 1225 UTC 17 Sep 2019

METAR for:PANC (Anchorage Intl, AK, US)
Text:PANC 171153Z 05007KT 10SM FEW049 BKN060 OVC110 11/09 A2968 RMK AO2 RAE05B25E53 SLP052 P0001 60002 70004 T01110094 10122 20089 53010
Temperature: 11.1°C ( 52°F)
Dewpoint: 9.4°C ( 49°F) [RH = 89%]
Pressure (altimeter):29.68 inches Hg (1005.2 mb) [Sea level pressure: 1005.2 mb]
Winds:from the NE (50 degrees) at 8 MPH (7 knots; 3.6 m/s)
Visibility:10 or more sm (16+ km)
Ceiling:6000 feet AGL
Clouds: few clouds at 4900 feet AGL, broken clouds at 6000 feet AGL, overcast cloud deck at 11000 feet AGL
Text:PANC 171053Z 11003KT 10SM RA BKN070 11/10 A2967 RMK AO2 RAB28 SLP049 P0001 T01110100
Temperature: 11.1°C ( 52°F)
Dewpoint: 10.0°C ( 50°F) [RH = 93%]
Pressure (altimeter):29.67 inches Hg (1004.8 mb) [Sea level pressure: 1004.9 mb]
Winds:from the ESE (110 degrees) at 3 MPH (3 knots; 1.5 m/s)
Visibility:10 or more sm (16+ km)
Ceiling:7000 feet AGL
Clouds: broken clouds at 7000 feet AGL
Weather:RA (moderate rain)
Text:PANC 170953Z 10004KT 10SM BKN075 BKN090 12/09 A2966 RMK AO2 SLP043 T01170094
Temperature: 11.7°C ( 53°F)
Dewpoint: 9.4°C ( 49°F) [RH = 86%]
Pressure (altimeter):29.66 inches Hg (1004.5 mb) [Sea level pressure: 1004.3 mb]
Winds:from the E (100 degrees) at 5 MPH (4 knots; 2.1 m/s)
Visibility:10 or more sm (16+ km)
Ceiling:7500 feet AGL
Clouds: broken clouds at 7500 feet AGL, broken clouds at 9000 feet AGL
Text:PANC 170853Z 12003KT 10SM FEW070 FEW085 BKN110 10/08 A2965 RMK AO2 SLP042 T01000083 401670089 53012
Temperature: 10.0°C ( 50°F)
Dewpoint: 8.3°C ( 47°F) [RH = 89%]
Pressure (altimeter):29.65 inches Hg (1004.1 mb) [Sea level pressure: 1004.2 mb]
Winds:from the ESE (120 degrees) at 3 MPH (3 knots; 1.5 m/s)
Visibility:10 or more sm (16+ km)
Ceiling:11000 feet AGL
Clouds: few clouds at 7000 feet AGL, few clouds at 8500 feet AGL, broken clouds at 11000 feet AGL
Text:PANC 170753Z 00000KT 10SM FEW070 09/08 A2964 RMK AO2 SLP038 T00940083
Temperature: 9.4°C ( 49°F)
Dewpoint: 8.3°C ( 47°F) [RH = 93%]
Pressure (altimeter):29.64 inches Hg (1003.8 mb) [Sea level pressure: 1003.8 mb]
Winds:calm
Visibility:10 or more sm (16+ km)
Ceiling:at least 12,000 feet AGL
Clouds: few clouds at 7000 feet AGL
Text:PANC 170653Z 12003KT 10SM FEW070 10/08 A2962 RMK AO2 SLP030 T01000078
Temperature: 10.0°C ( 50°F)
Dewpoint: 7.8°C ( 46°F) [RH = 86%]
Pressure (altimeter):29.62 inches Hg (1003.1 mb) [Sea level pressure: 1003.0 mb]
Winds:from the ESE (120 degrees) at 3 MPH (3 knots; 1.5 m/s)
Visibility:10 or more sm (16+ km)
Ceiling:at least 12,000 feet AGL
Clouds: few clouds at 7000 feet AGL

TAF for:PANC (Anchorage Intl, AK, US) issued at 1151 UTC 17 Sep 2019
Text:PANC 171151Z 1712/1818 11003KT P6SM -SHRA BKN070
Forecast period:1200 UTC 17 September 2019 to 0300 UTC 18 September 2019
Forecast type:FROM: standard forecast or significant change
Winds:from the ESE (110 degrees) at 3 MPH (3 knots; 1.5 m/s)
Visibility:6 or more sm (10+ km)
Ceiling:7000 feet AGL
Clouds: broken clouds at 7000 feet AGL
Weather:-SHRA (light rain showers)
Text:FM180300 16006KT P6SM SCT050 BKN120
Forecast period:0300 to 0600 UTC 18 September 2019
Forecast type:FROM: standard forecast or significant change
Winds:from the SSE (160 degrees) at 7 MPH (6 knots; 3.1 m/s)
Visibility:6 or more sm (10+ km)
Ceiling:12000 feet AGL
Clouds: scattered clouds at 5000 feet AGL, broken clouds at 12000 feet AGL
Text:FM180600 16015G25KT 5SM -RA BR BKN025 OVC050
Forecast period:0600 to 0900 UTC 18 September 2019
Forecast type:FROM: standard forecast or significant change
Winds:from the SSE (160 degrees) at 17 MPH (15 knots; 7.7 m/s) gusting to 29 MPH (25 knots; 12.9 m/s)
Visibility: 5 sm ( 8 km)
Ceiling:2500 feet AGL
Clouds: broken clouds at 2500 feet AGL, overcast cloud deck at 5000 feet AGL
Weather:-RA BR (light rain, mist)
Text:FM180900 16015G25KT 5SM -RA BR BKN025 OVC050 WS020/16040KT
Forecast period:0900 to 1800 UTC 18 September 2019
Forecast type:FROM: standard forecast or significant change
Winds:from the SSE (160 degrees) at 17 MPH (15 knots; 7.7 m/s) gusting to 29 MPH (25 knots; 12.9 m/s)
Visibility: 5 sm ( 8 km)
Ceiling:2500 feet AGL
Clouds: broken clouds at 2500 feet AGL, overcast cloud deck at 5000 feet AGL
Weather:-RA BR (light rain, mist)
Wind Shear:160 degrees at 40 knots at 2000 feet AGL